sensor_id;sensor_type;location;lat;lon;timestamp;temperature;humidity
21459;DHT22;10891;49.350;19.386;2022-07-04T00:02:13;14.90;99.90
21459;DHT22;10891;49.350;19.386;2022-07-04T00:04:40;14.90;99.90
21459;DHT22;10891;49.350;19.386;2022-07-04T00:07:07;15.00;99.90
21459;DHT22;10891;49.350;19.386;2022-07-04T00:09:35;14.90;99.90
21459;DHT22;10891;49.350;19.386;2022-07-04T00:12:03;14.90;99.90
21459;DHT22;10891;49.350;19.386;2022-07-04T00:14:30;14.90;99.90
21459;DHT22;10891;49.350;19.386;2022-07-04T00:16:57;14.90;99.90
21459;DHT22;10891;49.350;19.386;2022-07-04T00:19:23;14.90;99.90
21459;DHT22;10891;49.350;19.386;2022-07-04T00:21:50;14.80;99.90
21459;DHT22;10891;49.350;19.386;2022-07-04T00:24:17;14.80;99.90
21459;DHT22;10891;49.350;19.386;2022-07-04T00:26:45;14.80;99.90
21459;DHT22;10891;49.350;19.386;2022-07-04T00:29:12;14.70;99.90
21459;DHT22;10891;49.350;19.386;2022-07-04T00:31:40;14.70;99.90
21459;DHT22;10891;49.350;19.386;2022-07-04T00:34:06;14.60;99.90
21459;DHT22;10891;49.350;19.386;2022-07-04T00:36:34;14.50;99.90
21459;DHT22;10891;49.350;19.386;2022-07-04T00:39:00;14.50;99.90
21459;DHT22;10891;49.350;19.386;2022-07-04T00:41:27;14.40;99.90
21459;DHT22;10891;49.350;19.386;2022-07-04T00:44:03;14.30;99.90
21459;DHT22;10891;49.350;19.386;2022-07-04T00:46:30;14.20;99.90
21459;DHT22;10891;49.350;19.386;2022-07-04T00:48:57;14.20;99.90
21459;DHT22;10891;49.350;19.386;2022-07-04T00:51:24;14.10;99.90
21459;DHT22;10891;49.350;19.386;2022-07-04T00:53:52;14.00;99.90
21459;DHT22;10891;49.350;19.386;2022-07-04T00:56:20;13.90;99.90
21459;DHT22;10891;49.350;19.386;2022-07-04T00:58:47;13.90;99.90
21459;DHT22;10891;49.350;19.386;2022-07-04T01:01:16;13.80;99.90
21459;DHT22;10891;49.350;19.386;2022-07-04T01:03:43;13.80;99.90
21459;DHT22;10891;49.350;19.386;2022-07-04T01:06:10;13.80;99.90
21459;DHT22;10891;49.350;19.386;2022-07-04T01:08:39;13.80;99.90
21459;DHT22;10891;49.350;19.386;2022-07-04T01:11:06;13.80;99.90
21459;DHT22;10891;49.350;19.386;2022-07-04T01:13:33;13.80;99.90
21459;DHT22;10891;49.350;19.386;2022-07-04T01:16:01;13.80;99.90
21459;DHT22;10891;49.350;19.386;2022-07-04T01:18:30;13.70;99.90
21459;DHT22;10891;49.350;19.386;2022-07-04T01:20:58;13.70;99.90
21459;DHT22;10891;49.350;19.386;2022-07-04T01:23:26;13.60;99.90
21459;DHT22;10891;49.350;19.386;2022-07-04T01:25:53;13.50;99.90
21459;DHT22;10891;49.350;19.386;2022-07-04T01:28:20;13.40;99.90
21459;DHT22;10891;49.350;19.386;2022-07-04T01:30:48;13.40;99.90
21459;DHT22;10891;49.350;19.386;2022-07-04T01:33:15;13.40;99.90
21459;DHT22;10891;49.350;19.386;2022-07-04T01:35:43;13.40;99.90
21459;DHT22;10891;49.350;19.386;2022-07-04T01:38:11;13.30;99.90
21459;DHT22;10891;49.350;19.386;2022-07-04T01:40:38;13.40;99.90
21459;DHT22;10891;49.350;19.386;2022-07-04T01:43:05;13.40;99.90
21459;DHT22;10891;49.350;19.386;2022-07-04T01:45:32;13.30;99.90
21459;DHT22;10891;49.350;19.386;2022-07-04T01:47:59;13.30;99.90
21459;DHT22;10891;49.350;19.386;2022-07-04T01:50:27;13.20;99.90
21459;DHT22;10891;49.350;19.386;2022-07-04T01:52:53;13.20;99.90
21459;DHT22;10891;49.350;19.386;2022-07-04T01:55:22;13.20;99.90
21459;DHT22;10891;49.350;19.386;2022-07-04T01:57:48;13.20;99.90
21459;DHT22;10891;49.350;19.386;2022-07-04T02:00:15;13.20;99.90
21459;DHT22;10891;49.350;19.386;2022-07-04T02:03:00;13.20;99.90
21459;DHT22;10891;49.350;19.386;2022-07-04T02:05:27;13.10;99.90
21459;DHT22;10891;49.350;19.386;2022-07-04T02:07:54;13.00;99.90
21459;DHT22;10891;49.350;19.386;2022-07-04T02:10:22;13.00;99.90
21459;DHT22;10891;49.350;19.386;2022-07-04T02:12:49;12.90;99.90
21459;DHT22;10891;49.350;19.386;2022-07-04T02:15:27;12.90;99.90
21459;DHT22;10891;49.350;19.386;2022-07-04T02:17:55;12.90;99.90
21459;DHT22;10891;49.350;19.386;2022-07-04T02:20:22;13.00;99.90
21459;DHT22;10891;49.350;19.386;2022-07-04T02:22:49;12.80;99.90
21459;DHT22;10891;49.350;19.386;2022-07-04T02:25:16;12.70;99.90
21459;DHT22;10891;49.350;19.386;2022-07-04T02:27:45;12.60;99.90
21459;DHT22;10891;49.350;19.386;2022-07-04T02:30:12;12.60;99.90
21459;DHT22;10891;49.350;19.386;2022-07-04T02:32:39;12.50;99.90
21459;DHT22;10891;49.350;19.386;2022-07-04T02:35:08;12.50;99.90
21459;DHT22;10891;49.350;19.386;2022-07-04T02:37:35;12.50;99.90
21459;DHT22;10891;49.350;19.386;2022-07-04T02:40:03;12.50;99.90
21459;DHT22;10891;49.350;19.386;2022-07-04T02:42:30;12.50;99.90
21459;DHT22;10891;49.350;19.386;2022-07-04T02:44:59;12.50;99.90
21459;DHT22;10891;49.350;19.386;2022-07-04T02:47:26;12.50;99.90
21459;DHT22;10891;49.350;19.386;2022-07-04T02:49:53;12.60;99.90
21459;DHT22;10891;49.350;19.386;2022-07-04T02:52:21;12.50;99.90
21459;DHT22;10891;49.350;19.386;2022-07-04T02:54:47;12.50;99.90
21459;DHT22;10891;49.350;19.386;2022-07-04T02:57:15;12.50;99.90
21459;DHT22;10891;49.350;19.386;2022-07-04T02:59:43;12.50;99.90
21459;DHT22;10891;49.350;19.386;2022-07-04T03:02:11;12.60;99.90
21459;DHT22;10891;49.350;19.386;2022-07-04T03:04:38;12.60;99.90
21459;DHT22;10891;49.350;19.386;2022-07-04T03:07:05;12.70;99.90
21459;DHT22;10891;49.350;19.386;2022-07-04T03:09:33;12.90;99.90
21459;DHT22;10891;49.350;19.386;2022-07-04T03:12:00;13.10;99.90
21459;DHT22;10891;49.350;19.386;2022-07-04T03:14:26;13.10;99.90
21459;DHT22;10891;49.350;19.386;2022-07-04T03:16:54;13.10;99.90
21459;DHT22;10891;49.350;19.386;2022-07-04T03:19:22;13.00;99.90
21459;DHT22;10891;49.350;19.386;2022-07-04T03:21:49;13.00;99.90
21459;DHT22;10891;49.350;19.386;2022-07-04T03:24:16;12.90;99.90
21459;DHT22;10891;49.350;19.386;2022-07-04T03:26:42;13.00;99.90
21459;DHT22;10891;49.350;19.386;2022-07-04T03:29:09;13.00;99.90
21459;DHT22;10891;49.350;19.386;2022-07-04T03:31:36;13.10;99.90
21459;DHT22;10891;49.350;19.386;2022-07-04T03:34:03;13.10;99.90
21459;DHT22;10891;49.350;19.386;2022-07-04T03:36:31;13.20;99.90
21459;DHT22;10891;49.350;19.386;2022-07-04T03:38:58;14.70;99.90
21459;DHT22;10891;49.350;19.386;2022-07-04T03:41:25;17.00;99.90
21459;DHT22;10891;49.350;19.386;2022-07-04T03:43:51;19.10;99.90
21459;DHT22;10891;49.350;19.386;2022-07-04T03:46:18;19.90;99.90
21459;DHT22;10891;49.350;19.386;2022-07-04T03:48:45;20.20;99.90
21459;DHT22;10891;49.350;19.386;2022-07-04T03:51:12;21.10;99.90
21459;DHT22;10891;49.350;19.386;2022-07-04T03:53:41;22.30;99.70
21459;DHT22;10891;49.350;19.386;2022-07-04T03:56:07;23.10;97.60
21459;DHT22;10891;49.350;19.386;2022-07-04T03:58:34;24.20;95.90
21459;DHT22;10891;49.350;19.386;2022-07-04T04:01:02;25.20;94.40
21459;DHT22;10891;49.350;19.386;2022-07-04T04:03:28;26.20;92.90
21459;DHT22;10891;49.350;19.386;2022-07-04T04:06:13;26.70;91.10
21459;DHT22;10891;49.350;19.386;2022-07-04T04:08:41;26.80;91.60
21459;DHT22;10891;49.350;19.386;2022-07-04T04:11:09;27.60;90.80
21459;DHT22;10891;49.350;19.386;2022-07-04T04:13:36;28.10;89.40
21459;DHT22;10891;49.350;19.386;2022-07-04T04:16:03;27.60;87.30
21459;DHT22;10891;49.350;19.386;2022-07-04T04:18:30;26.90;89.50
21459;DHT22;10891;49.350;19.386;2022-07-04T04:20:57;27.50;88.80
21459;DHT22;10891;49.350;19.386;2022-07-04T04:23:24;27.90;86.60
21459;DHT22;10891;49.350;19.386;2022-07-04T04:25:52;28.50;87.30
21459;DHT22;10891;49.350;19.386;2022-07-04T04:28:19;29.30;85.90
21459;DHT22;10891;49.350;19.386;2022-07-04T04:30:46;29.90;83.70
21459;DHT22;10891;49.350;19.386;2022-07-04T04:33:12;29.80;82.30
21459;DHT22;10891;49.350;19.386;2022-07-04T04:35:39;29.40;82.60
21459;DHT22;10891;49.350;19.386;2022-07-04T04:38:06;29.80;81.70
21459;DHT22;10891;49.350;19.386;2022-07-04T04:40:33;30.70;80.70
21459;DHT22;10891;49.350;19.386;2022-07-04T04:43:02;31.30;79.30
21459;DHT22;10891;49.350;19.386;2022-07-04T04:45:29;31.90;77.40
21459;DHT22;10891;49.350;19.386;2022-07-04T04:47:55;32.30;76.10
21459;DHT22;10891;49.350;19.386;2022-07-04T04:50:22;32.30;75.50
21459;DHT22;10891;49.350;19.386;2022-07-04T04:52:49;32.50;75.40
21459;DHT22;10891;49.350;19.386;2022-07-04T04:55:16;32.60;74.70
21459;DHT22;10891;49.350;19.386;2022-07-04T04:57:43;32.50;76.10
21459;DHT22;10891;49.350;19.386;2022-07-04T05:00:12;32.90;74.20
21459;DHT22;10891;49.350;19.386;2022-07-04T05:02:39;33.40;74.90
21459;DHT22;10891;49.350;19.386;2022-07-04T05:05:06;34.00;73.40
21459;DHT22;10891;49.350;19.386;2022-07-04T05:07:34;34.10;72.10
21459;DHT22;10891;49.350;19.386;2022-07-04T05:10:01;34.50;72.30
21459;DHT22;10891;49.350;19.386;2022-07-04T05:12:27;34.50;71.50
21459;DHT22;10891;49.350;19.386;2022-07-04T05:14:55;34.50;71.50
21459;DHT22;10891;49.350;19.386;2022-07-04T05:17:24;35.00;71.00
21459;DHT22;10891;49.350;19.386;2022-07-04T05:19:51;35.00;70.30
21459;DHT22;10891;49.350;19.386;2022-07-04T05:22:18;35.30;70.90
21459;DHT22;10891;49.350;19.386;2022-07-04T05:24:45;35.30;70.10
21459;DHT22;10891;49.350;19.386;2022-07-04T05:27:12;35.10;71.50
21459;DHT22;10891;49.350;19.386;2022-07-04T05:29:39;35.30;70.30
21459;DHT22;10891;49.350;19.386;2022-07-04T05:32:07;35.50;70.10
21459;DHT22;10891;49.350;19.386;2022-07-04T05:34:35;35.70;70.80
21459;DHT22;10891;49.350;19.386;2022-07-04T05:37:03;35.00;70.40
21459;DHT22;10891;49.350;19.386;2022-07-04T05:39:31;35.40;71.00
21459;DHT22;10891;49.350;19.386;2022-07-04T05:41:58;35.90;69.40
21459;DHT22;10891;49.350;19.386;2022-07-04T05:44:25;35.80;69.60
21459;DHT22;10891;49.350;19.386;2022-07-04T05:46:54;36.00;69.30
21459;DHT22;10891;49.350;19.386;2022-07-04T05:49:21;36.00;68.30
21459;DHT22;10891;49.350;19.386;2022-07-04T05:51:49;36.10;67.50
21459;DHT22;10891;49.350;19.386;2022-07-04T05:54:16;35.90;66.70
21459;DHT22;10891;49.350;19.386;2022-07-04T05:56:44;35.70;67.20
21459;DHT22;10891;49.350;19.386;2022-07-04T05:59:11;36.20;67.40
21459;DHT22;10891;49.350;19.386;2022-07-04T06:01:38;36.40;66.30
21459;DHT22;10891;49.350;19.386;2022-07-04T06:04:05;36.60;66.40
21459;DHT22;10891;49.350;19.386;2022-07-04T06:06:32;36.80;66.20
21459;DHT22;10891;49.350;19.386;2022-07-04T06:09:01;36.70;67.10
21459;DHT22;10891;49.350;19.386;2022-07-04T06:11:28;36.90;65.70
21459;DHT22;10891;49.350;19.386;2022-07-04T06:13:55;36.90;65.80
21459;DHT22;10891;49.350;19.386;2022-07-04T06:16:22;37.10;65.40
21459;DHT22;10891;49.350;19.386;2022-07-04T06:18:49;37.10;65.70
21459;DHT22;10891;49.350;19.386;2022-07-04T06:21:16;37.30;65.10
21459;DHT22;10891;49.350;19.386;2022-07-04T06:23:43;37.40;64.50
21459;DHT22;10891;49.350;19.386;2022-07-04T06:26:13;36.80;65.90
21459;DHT22;10891;49.350;19.386;2022-07-04T06:28:40;36.50;65.90
21459;DHT22;10891;49.350;19.386;2022-07-04T06:31:07;35.10;66.80
21459;DHT22;10891;49.350;19.386;2022-07-04T06:33:34;34.20;70.70
21459;DHT22;10891;49.350;19.386;2022-07-04T06:36:22;34.00;71.70
21459;DHT22;10891;49.350;19.386;2022-07-04T06:38:48;34.50;72.40
21459;DHT22;10891;49.350;19.386;2022-07-04T06:41:16;34.10;70.70
21459;DHT22;10891;49.350;19.386;2022-07-04T06:43:43;34.00;72.70
21459;DHT22;10891;49.350;19.386;2022-07-04T06:46:10;34.10;72.30
21459;DHT22;10891;49.350;19.386;2022-07-04T06:48:37;34.50;69.40
21459;DHT22;10891;49.350;19.386;2022-07-04T06:51:04;35.60;66.80
21459;DHT22;10891;49.350;19.386;2022-07-04T06:53:30;35.30;66.40
21459;DHT22;10891;49.350;19.386;2022-07-04T06:55:57;34.10;63.70
21459;DHT22;10891;49.350;19.386;2022-07-04T06:58:26;33.80;66.70
21459;DHT22;10891;49.350;19.386;2022-07-04T07:00:52;33.90;66.20
21459;DHT22;10891;49.350;19.386;2022-07-04T07:03:19;33.80;65.10
21459;DHT22;10891;49.350;19.386;2022-07-04T07:05:46;33.20;64.30
21459;DHT22;10891;49.350;19.386;2022-07-04T07:08:13;33.70;65.30
21459;DHT22;10891;49.350;19.386;2022-07-04T07:10:40;34.00;65.30
21459;DHT22;10891;49.350;19.386;2022-07-04T07:13:07;33.30;64.40
21459;DHT22;10891;49.350;19.386;2022-07-04T07:15:35;32.80;65.50
21459;DHT22;10891;49.350;19.386;2022-07-04T07:18:02;33.60;64.00
21459;DHT22;10891;49.350;19.386;2022-07-04T07:20:29;33.70;63.40
21459;DHT22;10891;49.350;19.386;2022-07-04T07:22:56;34.20;63.50
21459;DHT22;10891;49.350;19.386;2022-07-04T07:25:23;34.10;63.50
21459;DHT22;10891;49.350;19.386;2022-07-04T07:27:49;34.10;64.30
21459;DHT22;10891;49.350;19.386;2022-07-04T07:30:16;33.80;65.10
21459;DHT22;10891;49.350;19.386;2022-07-04T07:32:45;32.20;65.10
21459;DHT22;10891;49.350;19.386;2022-07-04T07:35:12;31.20;67.00
21459;DHT22;10891;49.350;19.386;2022-07-04T07:37:40;31.00;69.50
21459;DHT22;10891;49.350;19.386;2022-07-04T07:40:08;31.30;69.00
21459;DHT22;10891;49.350;19.386;2022-07-04T07:42:35;31.30;68.30
21459;DHT22;10891;49.350;19.386;2022-07-04T07:45:02;31.20;69.40
21459;DHT22;10891;49.350;19.386;2022-07-04T07:47:29;30.90;71.20
21459;DHT22;10891;49.350;19.386;2022-07-04T07:49:57;30.50;71.60
21459;DHT22;10891;49.350;19.386;2022-07-04T07:52:24;30.10;72.00
21459;DHT22;10891;49.350;19.386;2022-07-04T07:54:51;30.20;69.80
21459;DHT22;10891;49.350;19.386;2022-07-04T07:57:18;30.10;70.70
21459;DHT22;10891;49.350;19.386;2022-07-04T07:59:45;30.20;71.70
21459;DHT22;10891;49.350;19.386;2022-07-04T08:02:12;30.00;68.80
21459;DHT22;10891;49.350;19.386;2022-07-04T08:04:38;29.40;72.70
21459;DHT22;10891;49.350;19.386;2022-07-04T08:07:11;29.20;70.80
21459;DHT22;10891;49.350;19.386;2022-07-04T08:09:38;28.70;71.20
21459;DHT22;10891;49.350;19.386;2022-07-04T08:12:07;28.00;72.60
21459;DHT22;10891;49.350;19.386;2022-07-04T08:14:34;27.70;75.10
21459;DHT22;10891;49.350;19.386;2022-07-04T08:17:02;27.50;75.50
21459;DHT22;10891;49.350;19.386;2022-07-04T08:19:31;27.50;75.00
21459;DHT22;10891;49.350;19.386;2022-07-04T08:21:58;27.60;75.80
21459;DHT22;10891;49.350;19.386;2022-07-04T08:24:26;27.70;76.00
21459;DHT22;10891;49.350;19.386;2022-07-04T08:26:53;27.90;76.00
21459;DHT22;10891;49.350;19.386;2022-07-04T08:29:20;28.10;73.50
21459;DHT22;10891;49.350;19.386;2022-07-04T08:31:47;28.30;75.30
21459;DHT22;10891;49.350;19.386;2022-07-04T08:34:14;28.20;70.40
21459;DHT22;10891;49.350;19.386;2022-07-04T08:36:41;28.10;71.60
21459;DHT22;10891;49.350;19.386;2022-07-04T08:39:08;28.10;71.90
21459;DHT22;10891;49.350;19.386;2022-07-04T08:41:39;28.00;72.80
21459;DHT22;10891;49.350;19.386;2022-07-04T08:44:06;28.00;72.10
21459;DHT22;10891;49.350;19.386;2022-07-04T08:46:38;28.20;73.40
21459;DHT22;10891;49.350;19.386;2022-07-04T08:49:14;28.30;71.20
21459;DHT22;10891;49.350;19.386;2022-07-04T08:51:47;28.40;72.80
21459;DHT22;10891;49.350;19.386;2022-07-04T08:54:18;28.30;68.70
21459;DHT22;10891;49.350;19.386;2022-07-04T08:57:05;28.40;69.20
21459;DHT22;10891;49.350;19.386;2022-07-04T08:59:50;28.60;65.20
21459;DHT22;10891;49.350;19.386;2022-07-04T09:02:20;28.40;65.60
21459;DHT22;10891;49.350;19.386;2022-07-04T09:04:49;28.60;67.00
21459;DHT22;10891;49.350;19.386;2022-07-04T09:07:16;28.80;67.80
21459;DHT22;10891;49.350;19.386;2022-07-04T09:21:43;28.80;65.50
21459;DHT22;10891;49.350;19.386;2022-07-04T09:24:10;28.60;64.50
21459;DHT22;10891;49.350;19.386;2022-07-04T09:26:40;29.00;66.70
21459;DHT22;10891;49.350;19.386;2022-07-04T09:29:10;29.20;65.90
21459;DHT22;10891;49.350;19.386;2022-07-04T09:31:38;29.10;65.40
21459;DHT22;10891;49.350;19.386;2022-07-04T09:34:07;29.30;67.30
21459;DHT22;10891;49.350;19.386;2022-07-04T09:36:40;29.20;66.00
21459;DHT22;10891;49.350;19.386;2022-07-04T09:39:11;29.20;63.90
21459;DHT22;10891;49.350;19.386;2022-07-04T09:41:54;29.10;65.70
21459;DHT22;10891;49.350;19.386;2022-07-04T09:44:23;29.30;67.10
21459;DHT22;10891;49.350;19.386;2022-07-04T09:46:51;29.80;64.00
21459;DHT22;10891;49.350;19.386;2022-07-04T09:49:18;30.10;62.60
21459;DHT22;10891;49.350;19.386;2022-07-04T09:51:48;30.50;63.90
21459;DHT22;10891;49.350;19.386;2022-07-04T09:54:23;31.10;65.60
21459;DHT22;10891;49.350;19.386;2022-07-04T09:56:54;31.30;64.80
21459;DHT22;10891;49.350;19.386;2022-07-04T09:59:22;31.10;64.40
21459;DHT22;10891;49.350;19.386;2022-07-04T10:01:50;31.30;65.40
21459;DHT22;10891;49.350;19.386;2022-07-04T10:04:17;31.20;65.80
21459;DHT22;10891;49.350;19.386;2022-07-04T10:06:48;31.20;66.60
21459;DHT22;10891;49.350;19.386;2022-07-04T10:09:16;31.00;66.80
21459;DHT22;10891;49.350;19.386;2022-07-04T10:11:46;30.90;65.20
21459;DHT22;10891;49.350;19.386;2022-07-04T10:14:14;30.80;64.50
21459;DHT22;10891;49.350;19.386;2022-07-04T10:16:41;30.60;66.90
21459;DHT22;10891;49.350;19.386;2022-07-04T10:19:09;30.40;68.90
21459;DHT22;10891;49.350;19.386;2022-07-04T10:21:38;30.30;68.90
21459;DHT22;10891;49.350;19.386;2022-07-04T10:24:07;30.50;67.10
21459;DHT22;10891;49.350;19.386;2022-07-04T10:26:34;30.90;66.10
21459;DHT22;10891;49.350;19.386;2022-07-04T10:29:00;31.30;66.60
21459;DHT22;10891;49.350;19.386;2022-07-04T10:31:29;31.60;64.00
21459;DHT22;10891;49.350;19.386;2022-07-04T10:33:58;31.60;65.10
21459;DHT22;10891;49.350;19.386;2022-07-04T10:36:27;31.20;74.40
21459;DHT22;10891;49.350;19.386;2022-07-04T10:38:57;31.00;74.70
21459;DHT22;10891;49.350;19.386;2022-07-04T10:41:28;30.90;67.30
21459;DHT22;10891;49.350;19.386;2022-07-04T10:43:57;31.00;67.30
21459;DHT22;10891;49.350;19.386;2022-07-04T10:49:24;30.80;63.10
21459;DHT22;10891;49.350;19.386;2022-07-04T10:51:53;30.90;66.90
21459;DHT22;10891;49.350;19.386;2022-07-04T10:54:27;30.70;63.50
21459;DHT22;10891;49.350;19.386;2022-07-04T10:56:59;30.80;62.90
21459;DHT22;10891;49.350;19.386;2022-07-04T10:59:33;30.80;61.50
21459;DHT22;10891;49.350;19.386;2022-07-04T11:02:26;30.80;62.50
21459;DHT22;10891;49.350;19.386;2022-07-04T11:04:57;31.10;65.20
21459;DHT22;10891;49.350;19.386;2022-07-04T11:07:59;30.90;64.40
21459;DHT22;10891;49.350;19.386;2022-07-04T11:10:30;30.60;62.00
21459;DHT22;10891;49.350;19.386;2022-07-04T11:13:08;30.80;64.40
21459;DHT22;10891;49.350;19.386;2022-07-04T11:16:02;30.70;64.20
21459;DHT22;10891;49.350;19.386;2022-07-04T11:18:34;30.60;62.50
21459;DHT22;10891;49.350;19.386;2022-07-04T11:21:21;30.30;62.70
21459;DHT22;10891;49.350;19.386;2022-07-04T11:23:55;29.90;64.30
21459;DHT22;10891;49.350;19.386;2022-07-04T11:26:22;30.00;64.60
21459;DHT22;10891;49.350;19.386;2022-07-04T11:28:51;30.00;63.80
21459;DHT22;10891;49.350;19.386;2022-07-04T11:31:18;30.00;63.90
21459;DHT22;10891;49.350;19.386;2022-07-04T11:33:46;30.00;64.10
21459;DHT22;10891;49.350;19.386;2022-07-04T11:36:15;30.10;63.70
21459;DHT22;10891;49.350;19.386;2022-07-04T11:38:45;30.00;63.60
21459;DHT22;10891;49.350;19.386;2022-07-04T11:41:12;30.20;67.60
21459;DHT22;10891;49.350;19.386;2022-07-04T11:43:57;30.30;65.30
21459;DHT22;10891;49.350;19.386;2022-07-04T11:46:42;30.20;63.00
21459;DHT22;10891;49.350;19.386;2022-07-04T11:49:10;30.10;63.50
21459;DHT22;10891;49.350;19.386;2022-07-04T11:51:42;30.50;64.00
21459;DHT22;10891;49.350;19.386;2022-07-04T11:54:09;30.60;62.20
21459;DHT22;10891;49.350;19.386;2022-07-04T11:56:36;30.90;61.50
21459;DHT22;10891;49.350;19.386;2022-07-04T11:59:11;31.30;62.20
21459;DHT22;10891;49.350;19.386;2022-07-04T12:01:39;31.40;59.40
21459;DHT22;10891;49.350;19.386;2022-07-04T12:04:14;31.30;61.30
21459;DHT22;10891;49.350;19.386;2022-07-04T12:06:42;31.70;62.60
21459;DHT22;10891;49.350;19.386;2022-07-04T12:09:09;31.60;60.00
21459;DHT22;10891;49.350;19.386;2022-07-04T12:11:57;31.30;61.80
21459;DHT22;10891;49.350;19.386;2022-07-04T12:14:26;31.20;61.80
21459;DHT22;10891;49.350;19.386;2022-07-04T12:17:14;30.70;62.20
21459;DHT22;10891;49.350;19.386;2022-07-04T12:19:52;30.40;63.80
21459;DHT22;10891;49.350;19.386;2022-07-04T12:22:31;30.00;63.70
21459;DHT22;10891;49.350;19.386;2022-07-04T12:24:59;29.80;61.80
21459;DHT22;10891;49.350;19.386;2022-07-04T12:27:30;29.50;63.40
21459;DHT22;10891;49.350;19.386;2022-07-04T12:29:59;29.70;64.70
21459;DHT22;10891;49.350;19.386;2022-07-04T12:32:46;30.50;66.80
21459;DHT22;10891;49.350;19.386;2022-07-04T12:38:10;31.60;62.70
21459;DHT22;10891;49.350;19.386;2022-07-04T12:40:52;31.50;62.00
21459;DHT22;10891;49.350;19.386;2022-07-04T12:43:19;31.60;62.90
21459;DHT22;10891;49.350;19.386;2022-07-04T12:45:48;31.00;61.40
21459;DHT22;10891;49.350;19.386;2022-07-04T12:48:22;30.90;61.70
21459;DHT22;10891;49.350;19.386;2022-07-04T12:50:49;30.90;63.00
21459;DHT22;10891;49.350;19.386;2022-07-04T12:53:16;30.90;63.20
21459;DHT22;10891;49.350;19.386;2022-07-04T12:55:44;31.10;62.40
21459;DHT22;10891;49.350;19.386;2022-07-04T12:58:11;31.10;64.30
21459;DHT22;10891;49.350;19.386;2022-07-04T13:00:39;31.10;62.50
21459;DHT22;10891;49.350;19.386;2022-07-04T13:03:08;30.90;62.70
21459;DHT22;10891;49.350;19.386;2022-07-04T13:05:35;30.90;65.20
21459;DHT22;10891;49.350;19.386;2022-07-04T13:08:03;30.80;64.00
21459;DHT22;10891;49.350;19.386;2022-07-04T13:10:30;30.80;64.00
21459;DHT22;10891;49.350;19.386;2022-07-04T13:12:58;30.90;63.80
21459;DHT22;10891;49.350;19.386;2022-07-04T13:15:25;31.20;63.20
21459;DHT22;10891;49.350;19.386;2022-07-04T13:17:52;31.30;62.60
21459;DHT22;10891;49.350;19.386;2022-07-04T13:20:20;31.20;62.10
21459;DHT22;10891;49.350;19.386;2022-07-04T13:22:47;31.00;62.90
21459;DHT22;10891;49.350;19.386;2022-07-04T13:25:14;31.40;62.90
21459;DHT22;10891;49.350;19.386;2022-07-04T13:27:41;31.30;63.10
21459;DHT22;10891;49.350;19.386;2022-07-04T13:30:09;31.40;64.40
21459;DHT22;10891;49.350;19.386;2022-07-04T13:32:36;31.40;65.20
21459;DHT22;10891;49.350;19.386;2022-07-04T13:35:03;32.00;61.40
21459;DHT22;10891;49.350;19.386;2022-07-04T13:37:32;32.10;61.60
21459;DHT22;10891;49.350;19.386;2022-07-04T13:39:59;32.30;61.30
21459;DHT22;10891;49.350;19.386;2022-07-04T13:42:26;32.40;60.40
21459;DHT22;10891;49.350;19.386;2022-07-04T13:45:10;31.90;60.10
21459;DHT22;10891;49.350;19.386;2022-07-04T13:47:39;31.60;63.10
21459;DHT22;10891;49.350;19.386;2022-07-04T13:50:07;31.30;62.60
21459;DHT22;10891;49.350;19.386;2022-07-04T13:52:35;30.90;63.00
21459;DHT22;10891;49.350;19.386;2022-07-04T13:55:02;30.60;63.60
21459;DHT22;10891;49.350;19.386;2022-07-04T13:57:30;30.80;63.40
21459;DHT22;10891;49.350;19.386;2022-07-04T13:59:56;31.30;62.80
21459;DHT22;10891;49.350;19.386;2022-07-04T14:02:23;31.40;64.80
21459;DHT22;10891;49.350;19.386;2022-07-04T14:04:50;31.40;63.90
21459;DHT22;10891;49.350;19.386;2022-07-04T14:07:17;31.40;63.60
21459;DHT22;10891;49.350;19.386;2022-07-04T14:09:45;31.10;63.40
21459;DHT22;10891;49.350;19.386;2022-07-04T14:12:13;31.10;64.80
21459;DHT22;10891;49.350;19.386;2022-07-04T14:14:41;31.20;64.70
21459;DHT22;10891;49.350;19.386;2022-07-04T14:17:08;31.00;63.70
21459;DHT22;10891;49.350;19.386;2022-07-04T14:19:35;30.90;65.90
21459;DHT22;10891;49.350;19.386;2022-07-04T14:22:02;30.70;66.20
21459;DHT22;10891;49.350;19.386;2022-07-04T14:24:29;30.70;66.30
21459;DHT22;10891;49.350;19.386;2022-07-04T14:26:57;30.40;66.70
21459;DHT22;10891;49.350;19.386;2022-07-04T14:29:24;30.30;68.10
21459;DHT22;10891;49.350;19.386;2022-07-04T14:31:51;29.70;68.20
21459;DHT22;10891;49.350;19.386;2022-07-04T14:34:18;29.50;68.50
21459;DHT22;10891;49.350;19.386;2022-07-04T14:36:44;29.50;70.20
21459;DHT22;10891;49.350;19.386;2022-07-04T14:39:11;29.70;69.20
21459;DHT22;10891;49.350;19.386;2022-07-04T14:41:38;29.50;69.50
21459;DHT22;10891;49.350;19.386;2022-07-04T14:44:06;29.50;67.00
21459;DHT22;10891;49.350;19.386;2022-07-04T14:46:34;29.80;67.10
21459;DHT22;10891;49.350;19.386;2022-07-04T14:49:00;29.80;67.90
21459;DHT22;10891;49.350;19.386;2022-07-04T14:51:27;29.90;66.80
21459;DHT22;10891;49.350;19.386;2022-07-04T14:53:54;29.80;67.50
21459;DHT22;10891;49.350;19.386;2022-07-04T14:56:21;29.80;66.40
21459;DHT22;10891;49.350;19.386;2022-07-04T14:58:48;29.90;65.80
21459;DHT22;10891;49.350;19.386;2022-07-04T15:01:16;29.80;67.00
21459;DHT22;10891;49.350;19.386;2022-07-04T15:03:43;29.40;67.50
21459;DHT22;10891;49.350;19.386;2022-07-04T15:06:10;29.30;68.00
21459;DHT22;10891;49.350;19.386;2022-07-04T15:08:37;29.30;67.20
21459;DHT22;10891;49.350;19.386;2022-07-04T15:11:03;29.40;66.80
21459;DHT22;10891;49.350;19.386;2022-07-04T15:13:30;29.60;67.00
21459;DHT22;10891;49.350;19.386;2022-07-04T15:15:57;29.90;65.40
21459;DHT22;10891;49.350;19.386;2022-07-04T15:18:25;30.20;66.50
21459;DHT22;10891;49.350;19.386;2022-07-04T15:20:52;30.30;66.40
21459;DHT22;10891;49.350;19.386;2022-07-04T15:23:36;30.20;65.50
21459;DHT22;10891;49.350;19.386;2022-07-04T15:26:21;29.90;66.90
21459;DHT22;10891;49.350;19.386;2022-07-04T15:28:47;29.70;66.50
21459;DHT22;10891;49.350;19.386;2022-07-04T15:31:14;29.50;67.20
21459;DHT22;10891;49.350;19.386;2022-07-04T15:33:43;29.40;66.60
21459;DHT22;10891;49.350;19.386;2022-07-04T15:36:09;29.20;66.50
21459;DHT22;10891;49.350;19.386;2022-07-04T15:38:36;29.10;67.40
21459;DHT22;10891;49.350;19.386;2022-07-04T15:41:03;29.10;69.70
21459;DHT22;10891;49.350;19.386;2022-07-04T15:43:30;29.10;68.00